sensor_id;sensor_type;location;lat;lon;timestamp;temperature;humidity
78992;DHT22;72820;44.838;37.674;2024-01-11T00:00:22;-0.21;86.05
78992;DHT22;72820;44.838;37.674;2024-01-11T00:01:25;-0.19;86.13
78992;DHT22;72820;44.838;37.674;2024-01-11T00:02:27;-0.18;86.10
78992;DHT22;72820;44.838;37.674;2024-01-11T00:03:29;-0.15;86.14
78992;DHT22;72820;44.838;37.674;2024-01-11T00:04:31;-0.15;86.04
78992;DHT22;72820;44.838;37.674;2024-01-11T00:05:32;-0.09;85.85
78992;DHT22;72820;44.838;37.674;2024-01-11T00:06:40;-0.11;85.67
78992;DHT22;72820;44.838;37.674;2024-01-11T00:07:42;-0.14;85.47
78992;DHT22;72820;44.838;37.674;2024-01-11T00:08:44;-0.12;85.28
78992;DHT22;72820;44.838;37.674;2024-01-11T00:09:45;-0.12;85.29
78992;DHT22;72820;44.838;37.674;2024-01-11T00:10:47;-0.08;85.10
78992;DHT22;72820;44.838;37.674;2024-01-11T00:11:49;-0.08;85.04
78992;DHT22;72820;44.838;37.674;2024-01-11T00:12:50;-0.09;84.82
78992;DHT22;72820;44.838;37.674;2024-01-11T00:13:52;-0.11;84.85
78992;DHT22;72820;44.838;37.674;2024-01-11T00:14:54;-0.07;84.69
78992;DHT22;72820;44.838;37.674;2024-01-11T00:15:55;-0.05;84.57
78992;DHT22;72820;44.838;37.674;2024-01-11T00:16:57;-0.02;84.35
78992;DHT22;72820;44.838;37.674;2024-01-11T00:17:58;-0.02;84.36
78992;DHT22;72820;44.838;37.674;2024-01-11T00:19:00;0.01;83.97
78992;DHT22;72820;44.838;37.674;2024-01-11T00:20:02;-0.02;83.57
78992;DHT22;72820;44.838;37.674;2024-01-11T00:21:04;-0.02;83.58
78992;DHT22;72820;44.838;37.674;2024-01-11T00:22:05;0.02;83.62
78992;DHT22;72820;44.838;37.674;2024-01-11T00:23:07;0.05;83.61
78992;DHT22;72820;44.838;37.674;2024-01-11T00:24:08;0.09;83.52
78992;DHT22;72820;44.838;37.674;2024-01-11T00:25:12;0.10;83.38
78992;DHT22;72820;44.838;37.674;2024-01-11T00:26:14;0.10;83.22
78992;DHT22;72820;44.838;37.674;2024-01-11T00:27:15;0.09;83.14
78992;DHT22;72820;44.838;37.674;2024-01-11T00:28:17;0.12;82.98
78992;DHT22;72820;44.838;37.674;2024-01-11T00:29:19;0.12;82.95
78992;DHT22;72820;44.838;37.674;2024-01-11T00:30:20;0.13;82.92
78992;DHT22;72820;44.838;37.674;2024-01-11T00:31:22;0.10;82.91
78992;DHT22;72820;44.838;37.674;2024-01-11T00:32:23;0.09;82.87
78992;DHT22;72820;44.838;37.674;2024-01-11T00:33:25;0.07;83.13
78992;DHT22;72820;44.838;37.674;2024-01-11T00:34:26;0.09;83.50
78992;DHT22;72820;44.838;37.674;2024-01-11T00:35:27;0.10;83.46
78992;DHT22;72820;44.838;37.674;2024-01-11T00:36:29;0.09;83.37
78992;DHT22;72820;44.838;37.674;2024-01-11T00:37:30;0.09;83.25
78992;DHT22;72820;44.838;37.674;2024-01-11T00:38:31;0.12;83.40
78992;DHT22;72820;44.838;37.674;2024-01-11T00:39:33;0.13;83.34
78992;DHT22;72820;44.838;37.674;2024-01-11T00:40:34;0.17;83.37
78992;DHT22;72820;44.838;37.674;2024-01-11T00:41:35;0.19;83.21
78992;DHT22;72820;44.838;37.674;2024-01-11T00:42:37;0.20;83.14
78992;DHT22;72820;44.838;37.674;2024-01-11T00:43:38;0.17;83.09
78992;DHT22;72820;44.838;37.674;2024-01-11T00:44:40;0.14;83.11
78992;DHT22;72820;44.838;37.674;2024-01-11T00:45:41;0.17;83.37
78992;DHT22;72820;44.838;37.674;2024-01-11T00:46:43;0.13;83.32
78992;DHT22;72820;44.838;37.674;2024-01-11T00:47:44;0.14;83.46
78992;DHT22;72820;44.838;37.674;2024-01-11T00:48:45;0.12;83.62
78992;DHT22;72820;44.838;37.674;2024-01-11T00:49:47;0.16;83.68
78992;DHT22;72820;44.838;37.674;2024-01-11T00:50:48;0.19;83.50
78992;DHT22;72820;44.838;37.674;2024-01-11T00:51:49;0.12;83.39
78992;DHT22;72820;44.838;37.674;2024-01-11T00:52:51;0.10;83.62
78992;DHT22;72820;44.838;37.674;2024-01-11T00:53:52;0.10;83.67
78992;DHT22;72820;44.838;37.674;2024-01-11T00:54:53;0.10;83.79
78992;DHT22;72820;44.838;37.674;2024-01-11T00:55:55;0.07;83.76
78992;DHT22;72820;44.838;37.674;2024-01-11T00:56:56;0.07;83.95
78992;DHT22;72820;44.838;37.674;2024-01-11T00:57:57;0.07;84.07
78992;DHT22;72820;44.838;37.674;2024-01-11T00:58:59;0.09;84.08
78992;DHT22;72820;44.838;37.674;2024-01-11T01:00:00;0.13;84.22
78992;DHT22;72820;44.838;37.674;2024-01-11T01:01:02;0.14;84.04
78992;DHT22;72820;44.838;37.674;2024-01-11T01:02:03;0.12;84.02
78992;DHT22;72820;44.838;37.674;2024-01-11T01:03:04;0.10;84.21
78992;DHT22;72820;44.838;37.674;2024-01-11T01:04:06;0.09;84.12
78992;DHT22;72820;44.838;37.674;2024-01-11T01:05:08;0.10;84.23
78992;DHT22;72820;44.838;37.674;2024-01-11T01:06:09;0.12;84.35
78992;DHT22;72820;44.838;37.674;2024-01-11T01:07:11;0.13;84.32
78992;DHT22;72820;44.838;37.674;2024-01-11T01:08:12;0.16;84.31
78992;DHT22;72820;44.838;37.674;2024-01-11T01:09:14;0.14;84.26
78992;DHT22;72820;44.838;37.674;2024-01-11T01:10:16;0.14;84.24
78992;DHT22;72820;44.838;37.674;2024-01-11T01:11:17;0.14;84.27
78992;DHT22;72820;44.838;37.674;2024-01-11T01:12:19;0.20;84.37
78992;DHT22;72820;44.838;37.674;2024-01-11T01:13:20;0.17;84.21
78992;DHT22;72820;44.838;37.674;2024-01-11T01:14:22;0.16;84.30
78992;DHT22;72820;44.838;37.674;2024-01-11T01:15:23;0.16;84.47
78992;DHT22;72820;44.838;37.674;2024-01-11T01:16:24;0.19;84.61
78992;DHT22;72820;44.838;37.674;2024-01-11T01:17:26;0.20;84.64
78992;DHT22;72820;44.838;37.674;2024-01-11T01:18:27;0.23;84.49
78992;DHT22;72820;44.838;37.674;2024-01-11T01:19:28;0.21;84.48
78992;DHT22;72820;44.838;37.674;2024-01-11T01:20:30;0.20;84.56
78992;DHT22;72820;44.838;37.674;2024-01-11T01:21:31;0.24;84.51
78992;DHT22;72820;44.838;37.674;2024-01-11T01:22:33;0.26;84.57
78992;DHT22;72820;44.838;37.674;2024-01-11T01:23:34;0.24;84.24
78992;DHT22;72820;44.838;37.674;2024-01-11T01:24:36;0.24;84.36
78992;DHT22;72820;44.838;37.674;2024-01-11T01:25:37;0.20;84.48
78992;DHT22;72820;44.838;37.674;2024-01-11T01:26:38;0.19;84.52
78992;DHT22;72820;44.838;37.674;2024-01-11T01:27:40;0.21;84.65
78992;DHT22;72820;44.838;37.674;2024-01-11T01:28:41;0.19;84.60
78992;DHT22;72820;44.838;37.674;2024-01-11T01:29:43;0.23;84.68
78992;DHT22;72820;44.838;37.674;2024-01-11T01:30:44;0.23;84.70
78992;DHT22;72820;44.838;37.674;2024-01-11T01:31:46;0.24;84.46
78992;DHT22;72820;44.838;37.674;2024-01-11T01:32:47;0.20;84.58
78992;DHT22;72820;44.838;37.674;2024-01-11T01:33:49;0.16;84.53
78992;DHT22;72820;44.838;37.674;2024-01-11T01:34:50;0.10;84.80
78992;DHT22;72820;44.838;37.674;2024-01-11T01:35:52;0.13;85.16
78992;DHT22;72820;44.838;37.674;2024-01-11T01:36:53;0.13;85.19
78992;DHT22;72820;44.838;37.674;2024-01-11T01:37:55;0.14;85.16
78992;DHT22;72820;44.838;37.674;2024-01-11T01:38:56;0.14;85.24
78992;DHT22;72820;44.838;37.674;2024-01-11T01:39:58;0.16;85.16
78992;DHT22;72820;44.838;37.674;2024-01-11T01:40:59;0.17;85.18
78992;DHT22;72820;44.838;37.674;2024-01-11T01:42:01;0.16;85.09
78992;DHT22;72820;44.838;37.674;2024-01-11T01:43:07;0.13;85.12
78992;DHT22;72820;44.838;37.674;2024-01-11T01:44:09;0.12;85.18
78992;DHT22;72820;44.838;37.674;2024-01-11T01:45:12;0.10;85.32
78992;DHT22;72820;44.838;37.674;2024-01-11T01:46:20;0.09;85.51
78992;DHT22;72820;44.838;37.674;2024-01-11T01:47:22;0.10;85.64
78992;DHT22;72820;44.838;37.674;2024-01-11T01:48:24;0.13;85.73
78992;DHT22;72820;44.838;37.674;2024-01-11T01:49:26;0.14;85.76
78992;DHT22;72820;44.838;37.674;2024-01-11T01:50:28;0.16;85.75
78992;DHT22;72820;44.838;37.674;2024-01-11T01:51:30;0.14;85.51
78992;DHT22;72820;44.838;37.674;2024-01-11T01:52:33;0.13;85.44
78992;DHT22;72820;44.838;37.674;2024-01-11T01:53:35;0.19;85.48
78992;DHT22;72820;44.838;37.674;2024-01-11T01:54:37;0.16;85.18
78992;DHT22;72820;44.838;37.674;2024-01-11T01:55:38;0.13;85.01
78992;DHT22;72820;44.838;37.674;2024-01-11T01:56:40;0.09;85.08
78992;DHT22;72820;44.838;37.674;2024-01-11T01:57:42;0.06;85.25
78992;DHT22;72820;44.838;37.674;2024-01-11T01:58:44;0.03;85.46
78992;DHT22;72820;44.838;37.674;2024-01-11T01:59:49;0.03;85.62
78992;DHT22;72820;44.838;37.674;2024-01-11T02:00:52;0.02;85.87
78992;DHT22;72820;44.838;37.674;2024-01-11T02:01:54;-0.01;85.97
78992;DHT22;72820;44.838;37.674;2024-01-11T02:02:56;-0.01;85.96
78992;DHT22;72820;44.838;37.674;2024-01-11T02:03:58;-0.04;86.07
78992;DHT22;72820;44.838;37.674;2024-01-11T02:05:00;-0.04;86.34
78992;DHT22;72820;44.838;37.674;2024-01-11T02:06:04;-0.05;86.29
78992;DHT22;72820;44.838;37.674;2024-01-11T02:07:06;-0.05;86.18
78992;DHT22;72820;44.838;37.674;2024-01-11T02:08:08;-0.04;86.30
78992;DHT22;72820;44.838;37.674;2024-01-11T02:09:13;-0.04;86.41
78992;DHT22;72820;44.838;37.674;2024-01-11T02:10:16;-0.05;86.26
78992;DHT22;72820;44.838;37.674;2024-01-11T02:11:19;-0.07;86.49
78992;DHT22;72820;44.838;37.674;2024-01-11T02:12:21;0.01;86.72
78992;DHT22;72820;44.838;37.674;2024-01-11T02:13:23;0.03;86.68
78992;DHT22;72820;44.838;37.674;2024-01-11T02:14:25;0.02;86.29
78992;DHT22;72820;44.838;37.674;2024-01-11T02:15:27;0.03;86.27
78992;DHT22;72820;44.838;37.674;2024-01-11T02:16:28;0.06;86.48
78992;DHT22;72820;44.838;37.674;2024-01-11T02:17:30;0.12;86.40
78992;DHT22;72820;44.838;37.674;2024-01-11T02:18:32;0.10;86.20
78992;DHT22;72820;44.838;37.674;2024-01-11T02:19:34;0.09;86.05
78992;DHT22;72820;44.838;37.674;2024-01-11T02:20:35;0.12;86.27
78992;DHT22;72820;44.838;37.674;2024-01-11T02:21:37;0.14;86.10
78992;DHT22;72820;44.838;37.674;2024-01-11T02:22:40;0.12;85.71
78992;DHT22;72820;44.838;37.674;2024-01-11T02:23:56;0.10;85.77
78992;DHT22;72820;44.838;37.674;2024-01-11T02:24:58;0.12;85.92
78992;DHT22;72820;44.838;37.674;2024-01-11T02:25:59;0.17;85.98
78992;DHT22;72820;44.838;37.674;2024-01-11T02:27:02;0.13;85.88
78992;DHT22;72820;44.838;37.674;2024-01-11T02:28:04;0.16;85.97
78992;DHT22;72820;44.838;37.674;2024-01-11T02:29:05;0.13;85.58
78992;DHT22;72820;44.838;37.674;2024-01-11T02:30:07;0.06;85.53
78992;DHT22;72820;44.838;37.674;2024-01-11T02:31:09;0.09;85.98
78992;DHT22;72820;44.838;37.674;2024-01-11T02:32:11;0.12;86.05
78992;DHT22;72820;44.838;37.674;2024-01-11T02:33:13;0.07;85.82
78992;DHT22;72820;44.838;37.674;2024-01-11T02:34:17;0.05;86.04
78992;DHT22;72820;44.838;37.674;2024-01-11T02:35:19;0.06;86.08
78992;DHT22;72820;44.838;37.674;2024-01-11T02:36:21;0.05;86.12
78992;DHT22;72820;44.838;37.674;2024-01-11T02:37:22;0.07;86.47
78992;DHT22;72820;44.838;37.674;2024-01-11T02:38:24;0.12;86.59
78992;DHT22;72820;44.838;37.674;2024-01-11T02:39:26;0.14;86.52
78992;DHT22;72820;44.838;37.674;2024-01-11T02:40:29;0.20;86.40
78992;DHT22;72820;44.838;37.674;2024-01-11T02:41:31;0.21;86.33
78992;DHT22;72820;44.838;37.674;2024-01-11T02:42:36;0.27;86.23
78992;DHT22;72820;44.838;37.674;2024-01-11T02:43:37;0.29;86.15
78992;DHT22;72820;44.838;37.674;2024-01-11T02:44:40;0.33;86.00
78992;DHT22;72820;44.838;37.674;2024-01-11T02:45:41;0.34;85.93
78992;DHT22;72820;44.838;37.674;2024-01-11T02:46:43;0.40;85.88
78992;DHT22;72820;44.838;37.674;2024-01-11T02:47:44;0.37;85.16
78992;DHT22;72820;44.838;37.674;2024-01-11T02:48:46;0.29;85.08
78992;DHT22;72820;44.838;37.674;2024-01-11T02:49:47;0.29;85.34
78992;DHT22;72820;44.838;37.674;2024-01-11T02:50:49;0.31;85.62
78992;DHT22;72820;44.838;37.674;2024-01-11T02:51:50;0.34;85.57
78992;DHT22;72820;44.838;37.674;2024-01-11T02:52:51;0.36;85.52
78992;DHT22;72820;44.838;37.674;2024-01-11T02:53:53;0.36;85.50
78992;DHT22;72820;44.838;37.674;2024-01-11T02:54:54;0.37;85.52
78992;DHT22;72820;44.838;37.674;2024-01-11T02:55:55;0.39;85.61
78992;DHT22;72820;44.838;37.674;2024-01-11T02:56:57;0.47;85.97
78992;DHT22;72820;44.838;37.674;2024-01-11T02:57:58;0.47;85.58
78992;DHT22;72820;44.838;37.674;2024-01-11T02:59:00;0.48;85.38
78992;DHT22;72820;44.838;37.674;2024-01-11T03:00:01;0.48;85.42
78992;DHT22;72820;44.838;37.674;2024-01-11T03:01:04;0.53;85.27
78992;DHT22;72820;44.838;37.674;2024-01-11T03:02:06;0.54;85.24
78992;DHT22;72820;44.838;37.674;2024-01-11T03:03:07;0.54;84.97
78992;DHT22;72820;44.838;37.674;2024-01-11T03:04:09;0.56;84.86
78992;DHT22;72820;44.838;37.674;2024-01-11T03:05:11;0.51;84.73
78992;DHT22;72820;44.838;37.674;2024-01-11T03:06:12;0.47;84.91
78992;DHT22;72820;44.838;37.674;2024-01-11T03:07:14;0.51;84.77
78992;DHT22;72820;44.838;37.674;2024-01-11T03:08:15;0.47;84.97
78992;DHT22;72820;44.838;37.674;2024-01-11T03:09:18;0.46;84.92
78992;DHT22;72820;44.838;37.674;2024-01-11T03:10:19;0.47;84.99
78992;DHT22;72820;44.838;37.674;2024-01-11T03:11:21;0.46;84.97
78992;DHT22;72820;44.838;37.674;2024-01-11T03:12:22;0.43;84.96
78992;DHT22;72820;44.838;37.674;2024-01-11T03:13:24;0.40;85.18
78992;DHT22;72820;44.838;37.674;2024-01-11T03:14:25;0.39;85.27
78992;DHT22;72820;44.838;37.674;2024-01-11T03:15:28;0.39;85.45
78992;DHT22;72820;44.838;37.674;2024-01-11T03:16:29;0.36;85.48
78992;DHT22;72820;44.838;37.674;2024-01-11T03:17:31;0.39;85.75
78992;DHT22;72820;44.838;37.674;2024-01-11T03:18:33;0.41;85.87
78992;DHT22;72820;44.838;37.674;2024-01-11T03:19:39;0.51;85.99
78992;DHT22;72820;44.838;37.674;2024-01-11T03:20:41;0.57;85.78
78992;DHT22;72820;44.838;37.674;2024-01-11T03:21:45;0.61;85.61
78992;DHT22;72820;44.838;37.674;2024-01-11T03:22:47;0.64;85.39
78992;DHT22;72820;44.838;37.674;2024-01-11T03:23:49;0.67;85.20
78992;DHT22;72820;44.838;37.674;2024-01-11T03:24:50;0.67;85.18
78992;DHT22;72820;44.838;37.674;2024-01-11T03:25:52;0.68;84.96
78992;DHT22;72820;44.838;37.674;2024-01-11T03:26:53;0.68;85.10
78992;DHT22;72820;44.838;37.674;2024-01-11T03:27:54;0.75;85.16
78992;DHT22;72820;44.838;37.674;2024-01-11T03:28:56;0.76;85.02
78992;DHT22;72820;44.838;37.674;2024-01-11T03:29:57;0.78;84.84
78992;DHT22;72820;44.838;37.674;2024-01-11T03:30:58;0.82;84.84
78992;DHT22;72820;44.838;37.674;2024-01-11T03:32:00;0.85;84.79
78992;DHT22;72820;44.838;37.674;2024-01-11T03:33:02;0.86;84.66
78992;DHT22;72820;44.838;37.674;2024-01-11T03:34:03;0.88;84.60
78992;DHT22;72820;44.838;37.674;2024-01-11T03:35:07;0.91;84.64
78992;DHT22;72820;44.838;37.674;2024-01-11T03:36:09;0.95;84.58
78992;DHT22;72820;44.838;37.674;2024-01-11T03:37:11;0.95;84.48
78992;DHT22;72820;44.838;37.674;2024-01-11T03:38:13;0.96;84.40
78992;DHT22;72820;44.838;37.674;2024-01-11T03:39:15;1.00;84.30
78992;DHT22;72820;44.838;37.674;2024-01-11T03:40:16;1.00;84.32
78992;DHT22;72820;44.838;37.674;2024-01-11T03:41:18;1.00;84.26
78992;DHT22;72820;44.838;37.674;2024-01-11T03:42:20;1.00;84.14
78992;DHT22;72820;44.838;37.674;2024-01-11T03:43:22;1.02;84.21
78992;DHT22;72820;44.838;37.674;2024-01-11T03:44:24;1.02;84.28
78992;DHT22;72820;44.838;37.674;2024-01-11T03:45:25;1.02;84.14
78992;DHT22;72820;44.838;37.674;2024-01-11T03:46:27;1.03;84.25
78992;DHT22;72820;44.838;37.674;2024-01-11T03:47:28;1.07;84.27
78992;DHT22;72820;44.838;37.674;2024-01-11T03:48:30;1.10;84.08
78992;DHT22;72820;44.838;37.674;2024-01-11T03:49:32;1.12;84.14
78992;DHT22;72820;44.838;37.674;2024-01-11T03:50:34;1.15;84.03
78992;DHT22;72820;44.838;37.674;2024-01-11T03:51:36;1.19;84.01
78992;DHT22;72820;44.838;37.674;2024-01-11T03:52:38;1.20;83.99
78992;DHT22;72820;44.838;37.674;2024-01-11T03:53:40;1.22;83.86
78992;DHT22;72820;44.838;37.674;2024-01-11T03:54:41;1.24;83.79
78992;DHT22;72820;44.838;37.674;2024-01-11T03:55:43;1.23;83.77
78992;DHT22;72820;44.838;37.674;2024-01-11T03:56:45;1.30;84.17
78992;DHT22;72820;44.838;37.674;2024-01-11T03:57:46;1.29;83.81
78992;DHT22;72820;44.838;37.674;2024-01-11T03:58:48;1.30;83.84
78992;DHT22;72820;44.838;37.674;2024-01-11T03:59:50;1.33;83.80
78992;DHT22;72820;44.838;37.674;2024-01-11T04:00:51;1.33;83.74
78992;DHT22;72820;44.838;37.674;2024-01-11T04:01:53;1.33;83.61
78992;DHT22;72820;44.838;37.674;2024-01-11T04:02:55;1.34;83.38
78992;DHT22;72820;44.838;37.674;2024-01-11T04:03:56;1.33;83.44
78992;DHT22;72820;44.838;37.674;2024-01-11T04:04:58;1.33;83.59
78992;DHT22;72820;44.838;37.674;2024-01-11T04:05:59;1.37;83.51
78992;DHT22;72820;44.838;37.674;2024-01-11T04:07:01;1.36;83.48
78992;DHT22;72820;44.838;37.674;2024-01-11T04:08:04;1.33;83.53
78992;DHT22;72820;44.838;37.674;2024-01-11T04:09:08;1.33;83.52
78992;DHT22;72820;44.838;37.674;2024-01-11T04:10:10;1.37;83.65
78992;DHT22;72820;44.838;37.674;2024-01-11T04:11:11;1.40;83.67
78992;DHT22;72820;44.838;37.674;2024-01-11T04:12:13;1.43;83.52
78992;DHT22;72820;44.838;37.674;2024-01-11T04:13:15;1.41;83.43
78992;DHT22;72820;44.838;37.674;2024-01-11T04:14:16;1.43;83.39
78992;DHT22;72820;44.838;37.674;2024-01-11T04:15:18;1.47;83.34
78992;DHT22;72820;44.838;37.674;2024-01-11T04:16:21;1.48;83.36
78992;DHT22;72820;44.838;37.674;2024-01-11T04:17:23;1.50;83.16
78992;DHT22;72820;44.838;37.674;2024-01-11T04:18:24;1.50;83.16
78992;DHT22;72820;44.838;37.674;2024-01-11T04:19:26;1.51;83.21
78992;DHT22;72820;44.838;37.674;2024-01-11T04:20:28;1.54;82.98
78992;DHT22;72820;44.838;37.674;2024-01-11T04:21:30;1.52;82.90
78992;DHT22;72820;44.838;37.674;2024-01-11T04:22:31;1.55;82.88
78992;DHT22;72820;44.838;37.674;2024-01-11T04:23:33;1.57;82.91
78992;DHT22;72820;44.838;37.674;2024-01-11T04:24:35;1.61;82.85
78992;DHT22;72820;44.838;37.674;2024-01-11T04:25:38;1.62;82.68
78992;DHT22;72820;44.838;37.674;2024-01-11T04:26:40;1.62;82.69
78992;DHT22;72820;44.838;37.674;2024-01-11T04:27:42;1.64;82.65
78992;DHT22;72820;44.838;37.674;2024-01-11T04:28:45;1.67;82.65
78992;DHT22;72820;44.838;37.674;2024-01-11T04:29:47;1.64;82.68
78992;DHT22;72820;44.838;37.674;2024-01-11T04:30:49;1.65;82.74
78992;DHT22;72820;44.838;37.674;2024-01-11T04:31:52;1.65;82.74
78992;DHT22;72820;44.838;37.674;2024-01-11T04:32:55;1.68;82.79
78992;DHT22;72820;44.838;37.674;2024-01-11T04:33:57;1.65;82.74
78992;DHT22;72820;44.838;37.674;2024-01-11T04:34:59;1.65;82.95
78992;DHT22;72820;44.838;37.674;2024-01-11T04:36:00;1.65;82.89
78992;DHT22;72820;44.838;37.674;2024-01-11T04:37:02;1.65;82.91
78992;DHT22;72820;44.838;37.674;2024-01-11T04:38:03;1.68;83.04
78992;DHT22;72820;44.838;37.674;2024-01-11T04:39:05;1.69;82.79
78992;DHT22;72820;44.838;37.674;2024-01-11T04:40:07;1.69;82.84
78992;DHT22;72820;44.838;37.674;2024-01-11T04:41:10;1.69;82.79
78992;DHT22;72820;44.838;37.674;2024-01-11T04:42:11;1.67;82.70
78992;DHT22;72820;44.838;37.674;2024-01-11T04:43:13;1.68;82.94
78992;DHT22;72820;44.838;37.674;2024-01-11T04:44:16;1.72;82.86
78992;DHT22;72820;44.838;37.674;2024-01-11T04:45:17;1.71;82.94
78992;DHT22;72820;44.838;37.674;2024-01-11T04:46:20;1.74;83.09
78992;DHT22;72820;44.838;37.674;2024-01-11T04:47:21;1.78;82.89
78992;DHT22;72820;44.838;37.674;2024-01-11T04:48:23;1.74;82.84
78992;DHT22;72820;44.838;37.674;2024-01-11T04:49:24;1.78;82.86
78992;DHT22;72820;44.838;37.674;2024-01-11T04:50:27;1.76;82.89
78992;DHT22;72820;44.838;37.674;2024-01-11T04:51:28;1.79;82.82
78992;DHT22;72820;44.838;37.674;2024-01-11T04:52:30;1.81;82.84
78992;DHT22;72820;44.838;37.674;2024-01-11T04:53:33;1.83;82.76
78992;DHT22;72820;44.838;37.674;2024-01-11T04:54:34;1.78;82.62
78992;DHT22;72820;44.838;37.674;2024-01-11T04:55:35;1.78;82.76
78992;DHT22;72820;44.838;37.674;2024-01-11T04:56:37;1.79;82.78
78992;DHT22;72820;44.838;37.674;2024-01-11T04:57:38;1.76;82.84
78992;DHT22;72820;44.838;37.674;2024-01-11T04:58:41;1.78;82.81
78992;DHT22;72820;44.838;37.674;2024-01-11T04:59:43;1.85;82.85
78992;DHT22;72820;44.838;37.674;2024-01-11T05:00:44;1.82;82.59
78992;DHT22;72820;44.838;37.674;2024-01-11T05:01:46;1.81;82.60
78992;DHT22;72820;44.838;37.674;2024-01-11T05:02:47;1.82;82.62
78992;DHT22;72820;44.838;37.674;2024-01-11T05:03:49;1.82;82.67
78992;DHT22;72820;44.838;37.674;2024-01-11T05:04:50;1.81;82.53
78992;DHT22;72820;44.838;37.674;2024-01-11T05:05:52;1.82;82.55
78992;DHT22;72820;44.838;37.674;2024-01-11T05:06:53;1.81;82.57
78992;DHT22;72820;44.838;37.674;2024-01-11T05:07:55;1.81;82.51
78992;DHT22;72820;44.838;37.674;2024-01-11T05:08:56;1.79;82.47
78992;DHT22;72820;44.838;37.674;2024-01-11T05:09:57;1.79;82.57
78992;DHT22;72820;44.838;37.674;2024-01-11T05:10:59;1.82;82.62
78992;DHT22;72820;44.838;37.674;2024-01-11T05:12:00;1.81;82.41
78992;DHT22;72820;44.838;37.674;2024-01-11T05:13:02;1.76;82.53
78992;DHT22;72820;44.838;37.674;2024-01-11T05:14:03;1.81;82.67
78992;DHT22;72820;44.838;37.674;2024-01-11T05:15:06;1.79;82.63
78992;DHT22;72820;44.838;37.674;2024-01-11T05:16:26;1.78;82.57
78992;DHT22;72820;44.838;37.674;2024-01-11T05:17:27;1.76;82.73
78992;DHT22;72820;44.838;37.674;2024-01-11T05:18:29;1.78;82.75
78992;DHT22;72820;44.838;37.674;2024-01-11T05:19:30;1.78;82.62
78992;DHT22;72820;44.838;37.674;2024-01-11T05:20:32;1.75;82.61
78992;DHT22;72820;44.838;37.674;2024-01-11T05:21:33;1.76;82.80
78992;DHT22;72820;44.838;37.674;2024-01-11T05:22:34;1.78;82.73
78992;DHT22;72820;44.838;37.674;2024-01-11T05:23:36;1.79;82.88
78992;DHT22;72820;44.838;37.674;2024-01-11T05:24:37;1.81;82.79
78992;DHT22;72820;44.838;37.674;2024-01-11T05:25:39;1.81;82.78
78992;DHT22;72820;44.838;37.674;2024-01-11T05:26:40;1.82;82.72
78992;DHT22;72820;44.838;37.674;2024-01-11T05:27:41;1.76;82.78
78992;DHT22;72820;44.838;37.674;2024-01-11T05:28:43;1.78;82.83
78992;DHT22;72820;44.838;37.674;2024-01-11T05:29:45;1.78;82.87
78992;DHT22;72820;44.838;37.674;2024-01-11T05:30:46;1.76;82.87
78992;DHT22;72820;44.838;37.674;2024-01-11T05:31:48;1.79;82.97
78992;DHT22;72820;44.838;37.674;2024-01-11T05:32:49;1.81;82.99
78992;DHT22;72820;44.838;37.674;2024-01-11T05:33:51;1.82;82.83
78992;DHT22;72820;44.838;37.674;2024-01-11T05:34:52;1.89;83.96
78992;DHT22;72820;44.838;37.674;2024-01-11T05:35:54;1.89;83.04
78992;DHT22;72820;44.838;37.674;2024-01-11T05:36:55;1.93;82.87
78992;DHT22;72820;44.838;37.674;2024-01-11T05:37:56;1.92;82.68
78992;DHT22;72820;44.838;37.674;2024-01-11T05:38:59;1.92;82.58
78992;DHT22;72820;44.838;37.674;2024-01-11T05:40:00;1.93;82.60
78992;DHT22;72820;44.838;37.674;2024-01-11T05:41:02;1.91;82.73
78992;DHT22;72820;44.838;37.674;2024-01-11T05:42:03;1.91;82.71
78992;DHT22;72820;44.838;37.674;2024-01-11T05:43:05;1.92;82.67
78992;DHT22;72820;44.838;37.674;2024-01-11T05:44:06;1.92;82.71
78992;DHT22;72820;44.838;37.674;2024-01-11T05:45:08;1.92;82.74
78992;DHT22;72820;44.838;37.674;2024-01-11T05:46:09;1.93;82.72
78992;DHT22;72820;44.838;37.674;2024-01-11T05:47:11;1.95;82.83
78992;DHT22;72820;44.838;37.674;2024-01-11T05:48:12;1.96;82.91
78992;DHT22;72820;44.838;37.674;2024-01-11T05:49:14;1.96;82.66
78992;DHT22;72820;44.838;37.674;2024-01-11T05:50:16;2.01;82.65
78992;DHT22;72820;44.838;37.674;2024-01-11T05:51:18;1.99;82.55
78992;DHT22;72820;44.838;37.674;2024-01-11T05:52:19;1.96;82.63
78992;DHT22;72820;44.838;37.674;2024-01-11T05:53:21;1.99;82.74
78992;DHT22;72820;44.838;37.674;2024-01-11T05:54:22;2.02;82.73
78992;DHT22;72820;44.838;37.674;2024-01-11T05:55:24;2.16;85.26
78992;DHT22;72820;44.838;37.674;2024-01-11T05:56:25;2.47;84.96
78992;DHT22;72820;44.838;37.674;2024-01-11T05:57:27;2.47;81.85
78992;DHT22;72820;44.838;37.674;2024-01-11T05:58:28;2.37;81.56
78992;DHT22;72820;44.838;37.674;2024-01-11T05:59:30;2.34;81.64
78992;DHT22;72820;44.838;37.674;2024-01-11T06:00:31;2.31;81.66
78992;DHT22;72820;44.838;37.674;2024-01-11T06:01:32;2.31;81.76
78992;DHT22;72820;44.838;37.674;2024-01-11T06:02:36;2.31;81.71
78992;DHT22;72820;44.838;37.674;2024-01-11T06:03:37;2.31;81.83
78992;DHT22;72820;44.838;37.674;2024-01-11T06:04:40;2.33;81.77
78992;DHT22;72820;44.838;37.674;2024-01-11T06:05:41;2.31;81.88
78992;DHT22;72820;44.838;37.674;2024-01-11T06:06:43;2.33;81.95
78992;DHT22;72820;44.838;37.674;2024-01-11T06:07:44;2.29;81.88
78992;DHT22;72820;44.838;37.674;2024-01-11T06:08:45;2.30;82.07
78992;DHT22;72820;44.838;37.674;2024-01-11T06:09:47;2.31;81.94
78992;DHT22;72820;44.838;37.674;2024-01-11T06:10:48;2.36;81.87
78992;DHT22;72820;44.838;37.674;2024-01-11T06:11:50;2.31;81.86
78992;DHT22;72820;44.838;37.674;2024-01-11T06:12:51;2.31;81.89
78992;DHT22;72820;44.838;37.674;2024-01-11T06:13:53;2.34;81.87
78992;DHT22;72820;44.838;37.674;2024-01-11T06:14:55;2.34;81.75
78992;DHT22;72820;44.838;37.674;2024-01-11T06:15:56;2.31;81.78
78992;DHT22;72820;44.838;37.674;2024-01-11T06:16:58;2.31;81.83
78992;DHT22;72820;44.838;37.674;2024-01-11T06:18:00;2.33;81.84
78992;DHT22;72820;44.838;37.674;2024-01-11T06:19:01;2.33;81.85
78992;DHT22;72820;44.838;37.674;2024-01-11T06:20:03;2.34;81.87
78992;DHT22;72820;44.838;37.674;2024-01-11T06:21:06;2.36;81.84
78992;DHT22;72820;44.838;37.674;2024-01-11T06:22:07;2.34;81.88
78992;DHT22;72820;44.838;37.674;2024-01-11T06:23:09;2.37;81.75
78992;DHT22;72820;44.838;37.674;2024-01-11T06:24:10;2.38;81.82
78992;DHT22;72820;44.838;37.674;2024-01-11T06:25:11;2.36;81.88
78992;DHT22;72820;44.838;37.674;2024-01-11T06:26:13;2.36;81.94
78992;DHT22;72820;44.838;37.674;2024-01-11T06:27:15;2.40;81.84
78992;DHT22;72820;44.838;37.674;2024-01-11T06:28:16;2.38;81.85
78992;DHT22;72820;44.838;37.674;2024-01-11T06:29:17;2.40;81.84
78992;DHT22;72820;44.838;37.674;2024-01-11T06:30:19;2.44;81.79